sensor_id;sensor_type;location;lat;lon;timestamp;P1;P2;P0
78408;PMS5003;67697;50.750;-3.270;2024-01-07T00:01:21;21;18;
78408;PMS5003;67697;50.750;-3.270;2024-01-07T00:03:46;19;15;
78408;PMS5003;67697;50.750;-3.270;2024-01-07T00:06:12;19;19;
78408;PMS5003;67697;50.750;-3.270;2024-01-07T00:08:38;23;19;
78408;PMS5003;67697;50.750;-3.270;2024-01-07T00:11:04;31;29;
78408;PMS5003;67697;50.750;-3.270;2024-01-07T00:13:29;25;18;
78408;PMS5003;67697;50.750;-3.270;2024-01-07T00:15:54;23;19;
78408;PMS5003;67697;50.750;-3.270;2024-01-07T00:18:20;26;22;
78408;PMS5003;67697;50.750;-3.270;2024-01-07T00:20:45;22;22;
78408;PMS5003;67697;50.750;-3.270;2024-01-07T00:23:11;26;19;
78408;PMS5003;67697;50.750;-3.270;2024-01-07T00:25:36;21;17;
78408;PMS5003;67697;50.750;-3.270;2024-01-07T00:28:02;22;20;
78408;PMS5003;67697;50.750;-3.270;2024-01-07T00:30:28;18;14;
78408;PMS5003;67697;50.750;-3.270;2024-01-07T00:32:53;18;18;
78408;PMS5003;67697;50.750;-3.270;2024-01-07T00:35:19;18;14;
78408;PMS5003;67697;50.750;-3.270;2024-01-07T00:37:44;17;14;
78408;PMS5003;67697;50.750;-3.270;2024-01-07T00:40:10;16;16;
78408;PMS5003;67697;50.750;-3.270;2024-01-07T00:42:36;20;14;
78408;PMS5003;67697;50.750;-3.270;2024-01-07T00:45:01;20;14;
78408;PMS5003;67697;50.750;-3.270;2024-01-07T00:47:27;13;12;
78408;PMS5003;67697;50.750;-3.270;2024-01-07T00:49:53;14;10;
78408;PMS5003;67697;50.750;-3.270;2024-01-07T00:52:18;17;13;
78408;PMS5003;67697;50.750;-3.270;2024-01-07T00:54:44;14;12;
78408;PMS5003;67697;50.750;-3.270;2024-01-07T00:57:10;20;13;
78408;PMS5003;67697;50.750;-3.270;2024-01-07T00:59:36;14;9;
78408;PMS5003;67697;50.750;-3.270;2024-01-07T01:02:02;12;10;
78408;PMS5003;67697;50.750;-3.270;2024-01-07T01:04:27;10;8;
78408;PMS5003;67697;50.750;-3.270;2024-01-07T01:06:53;12;12;
78408;PMS5003;67697;50.750;-3.270;2024-01-07T01:09:19;13;10;
78408;PMS5003;67697;50.750;-3.270;2024-01-07T01:11:44;14;12;
78408;PMS5003;67697;50.750;-3.270;2024-01-07T01:14:10;13;12;
78408;PMS5003;67697;50.750;-3.270;2024-01-07T01:16:35;16;12;
78408;PMS5003;67697;50.750;-3.270;2024-01-07T01:19:00;19;12;
78408;PMS5003;67697;50.750;-3.270;2024-01-07T01:21:26;12;12;
78408;PMS5003;67697;50.750;-3.270;2024-01-07T01:23:52;14;10;
78408;PMS5003;67697;50.750;-3.270;2024-01-07T01:26:18;9;9;
78408;PMS5003;67697;50.750;-3.270;2024-01-07T01:28:44;17;13;
78408;PMS5003;67697;50.750;-3.270;2024-01-07T01:31:12;10;10;
78408;PMS5003;67697;50.750;-3.270;2024-01-07T01:33:35;12;9;
78408;PMS5003;67697;50.750;-3.270;2024-01-07T01:36:03;19;12;
78408;PMS5003;67697;50.750;-3.270;2024-01-07T01:38:25;16;15;
78408;PMS5003;67697;50.750;-3.270;2024-01-07T01:40:51;10;10;
78408;PMS5003;67697;50.750;-3.270;2024-01-07T01:43:21;16;13;
78408;PMS5003;67697;50.750;-3.270;2024-01-07T01:45:42;16;13;
78408;PMS5003;67697;50.750;-3.270;2024-01-07T01:48:08;10;10;
78408;PMS5003;67697;50.750;-3.270;2024-01-07T01:50:33;15;15;
78408;PMS5003;67697;50.750;-3.270;2024-01-07T01:52:59;13;9;
78408;PMS5003;67697;50.750;-3.270;2024-01-07T01:55:24;14;10;
78408;PMS5003;67697;50.750;-3.270;2024-01-07T01:57:50;12;9;
78408;PMS5003;67697;50.750;-3.270;2024-01-07T02:00:16;12;12;
78408;PMS5003;67697;50.750;-3.270;2024-01-07T02:02:42;10;9;
78408;PMS5003;67697;50.750;-3.270;2024-01-07T02:05:07;12;10;
78408;PMS5003;67697;50.750;-3.270;2024-01-07T02:07:32;12;9;
78408;PMS5003;67697;50.750;-3.270;2024-01-07T02:09:58;14;10;
78408;PMS5003;67697;50.750;-3.270;2024-01-07T02:12:23;13;12;
78408;PMS5003;67697;50.750;-3.270;2024-01-07T02:14:48;16;12;
78408;PMS5003;67697;50.750;-3.270;2024-01-07T02:17:14;21;12;
78408;PMS5003;67697;50.750;-3.270;2024-01-07T02:19:39;19;13;
78408;PMS5003;67697;50.750;-3.270;2024-01-07T02:22:05;16;12;
78408;PMS5003;67697;50.750;-3.270;2024-01-07T02:24:30;13;12;
78408;PMS5003;67697;50.750;-3.270;2024-01-07T02:26:56;15;12;
78408;PMS5003;67697;50.750;-3.270;2024-01-07T02:29:22;17;13;
78408;PMS5003;67697;50.750;-3.270;2024-01-07T02:31:47;17;12;
78408;PMS5003;67697;50.750;-3.270;2024-01-07T02:34:13;12;9;
78408;PMS5003;67697;50.750;-3.270;2024-01-07T02:36:40;16;10;
78408;PMS5003;67697;50.750;-3.270;2024-01-07T02:39:05;15;11;
78408;PMS5003;67697;50.750;-3.270;2024-01-07T02:41:30;13;12;
78408;PMS5003;67697;50.750;-3.270;2024-01-07T02:43:56;20;15;
78408;PMS5003;67697;50.750;-3.270;2024-01-07T02:46:23;13;11;
78408;PMS5003;67697;50.750;-3.270;2024-01-07T02:48:46;16;16;
78408;PMS5003;67697;50.750;-3.270;2024-01-07T02:51:12;15;15;
78408;PMS5003;67697;50.750;-3.270;2024-01-07T02:53:38;17;13;
78408;PMS5003;67697;50.750;-3.270;2024-01-07T02:56:04;13;12;
78408;PMS5003;67697;50.750;-3.270;2024-01-07T02:58:29;13;12;
78408;PMS5003;67697;50.750;-3.270;2024-01-07T03:00:54;11;11;
78408;PMS5003;67697;50.750;-3.270;2024-01-07T03:03:20;15;15;
78408;PMS5003;67697;50.750;-3.270;2024-01-07T03:05:46;9;9;
78408;PMS5003;67697;50.750;-3.270;2024-01-07T03:08:11;12;12;
78408;PMS5003;67697;50.750;-3.270;2024-01-07T03:10:37;15;13;
78408;PMS5003;67697;50.750;-3.270;2024-01-07T03:13:02;12;10;
78408;PMS5003;67697;50.750;-3.270;2024-01-07T03:15:28;15;12;
78408;PMS5003;67697;50.750;-3.270;2024-01-07T03:17:53;11;11;
78408;PMS5003;67697;50.750;-3.270;2024-01-07T03:20:18;12;9;
78408;PMS5003;67697;50.750;-3.270;2024-01-07T03:22:44;12;8;
78408;PMS5003;67697;50.750;-3.270;2024-01-07T03:25:09;9;9;
78408;PMS5003;67697;50.750;-3.270;2024-01-07T03:27:35;13;11;
78408;PMS5003;67697;50.750;-3.270;2024-01-07T03:30:00;13;9;
78408;PMS5003;67697;50.750;-3.270;2024-01-07T03:32:25;11;9;
78408;PMS5003;67697;50.750;-3.270;2024-01-07T03:34:51;13;13;
78408;PMS5003;67697;50.750;-3.270;2024-01-07T03:37:17;9;9;
78408;PMS5003;67697;50.750;-3.270;2024-01-07T03:39:44;9;9;
78408;PMS5003;67697;50.750;-3.270;2024-01-07T03:42:08;22;17;
78408;PMS5003;67697;50.750;-3.270;2024-01-07T03:44:33;10;10;
78408;PMS5003;67697;50.750;-3.270;2024-01-07T03:46:58;15;11;
78408;PMS5003;67697;50.750;-3.270;2024-01-07T03:49:24;12;12;
78408;PMS5003;67697;50.750;-3.270;2024-01-07T03:51:49;9;9;
78408;PMS5003;67697;50.750;-3.270;2024-01-07T03:54:15;12;9;
78408;PMS5003;67697;50.750;-3.270;2024-01-07T03:56:40;11;11;
78408;PMS5003;67697;50.750;-3.270;2024-01-07T03:59:06;9;8;
78408;PMS5003;67697;50.750;-3.270;2024-01-07T04:01:31;8;8;
78408;PMS5003;67697;50.750;-3.270;2024-01-07T04:03:56;12;9;
78408;PMS5003;67697;50.750;-3.270;2024-01-07T04:06:21;12;12;
78408;PMS5003;67697;50.750;-3.270;2024-01-07T04:08:47;13;12;
78408;PMS5003;67697;50.750;-3.270;2024-01-07T04:11:12;8;8;
78408;PMS5003;67697;50.750;-3.270;2024-01-07T04:13:38;16;12;
78408;PMS5003;67697;50.750;-3.270;2024-01-07T04:16:03;20;15;
78408;PMS5003;67697;50.750;-3.270;2024-01-07T04:18:29;10;10;
78408;PMS5003;67697;50.750;-3.270;2024-01-07T04:20:55;16;16;
78408;PMS5003;67697;50.750;-3.270;2024-01-07T04:23:21;13;10;
78408;PMS5003;67697;50.750;-3.270;2024-01-07T04:25:46;12;12;
78408;PMS5003;67697;50.750;-3.270;2024-01-07T04:28:12;15;12;
78408;PMS5003;67697;50.750;-3.270;2024-01-07T04:30:37;12;9;
78408;PMS5003;67697;50.750;-3.270;2024-01-07T04:33:03;11;9;
78408;PMS5003;67697;50.750;-3.270;2024-01-07T04:35:28;18;15;
78408;PMS5003;67697;50.750;-3.270;2024-01-07T04:37:54;16;13;
78408;PMS5003;67697;50.750;-3.270;2024-01-07T04:40:20;13;13;
78408;PMS5003;67697;50.750;-3.270;2024-01-07T04:42:45;15;13;
78408;PMS5003;67697;50.750;-3.270;2024-01-07T04:45:11;8;8;
78408;PMS5003;67697;50.750;-3.270;2024-01-07T04:47:36;14;12;
78408;PMS5003;67697;50.750;-3.270;2024-01-07T04:50:02;13;13;
78408;PMS5003;67697;50.750;-3.270;2024-01-07T04:52:27;12;11;
78408;PMS5003;67697;50.750;-3.270;2024-01-07T04:54:52;8;8;
78408;PMS5003;67697;50.750;-3.270;2024-01-07T04:57:17;11;11;
78408;PMS5003;67697;50.750;-3.270;2024-01-07T04:59:43;10;9;
78408;PMS5003;67697;50.750;-3.270;2024-01-07T05:02:08;8;8;
78408;PMS5003;67697;50.750;-3.270;2024-01-07T05:04:35;8;8;
78408;PMS5003;67697;50.750;-3.270;2024-01-07T05:06:59;15;15;
78408;PMS5003;67697;50.750;-3.270;2024-01-07T05:09:25;12;11;
78408;PMS5003;67697;50.750;-3.270;2024-01-07T05:11:51;9;9;
78408;PMS5003;67697;50.750;-3.270;2024-01-07T05:14:16;15;11;
78408;PMS5003;67697;50.750;-3.270;2024-01-07T05:16:42;12;12;
78408;PMS5003;67697;50.750;-3.270;2024-01-07T05:19:07;9;9;
78408;PMS5003;67697;50.750;-3.270;2024-01-07T05:21:33;12;11;
78408;PMS5003;67697;50.750;-3.270;2024-01-07T05:23:58;13;8;
78408;PMS5003;67697;50.750;-3.270;2024-01-07T05:26:24;9;9;
78408;PMS5003;67697;50.750;-3.270;2024-01-07T05:28:49;11;9;
78408;PMS5003;67697;50.750;-3.270;2024-01-07T05:31:15;12;9;
78408;PMS5003;67697;50.750;-3.270;2024-01-07T05:33:39;8;8;
78408;PMS5003;67697;50.750;-3.270;2024-01-07T05:36:06;12;9;
78408;PMS5003;67697;50.750;-3.270;2024-01-07T05:38:30;10;8;
78408;PMS5003;67697;50.750;-3.270;2024-01-07T05:40:56;13;10;
78408;PMS5003;67697;50.750;-3.270;2024-01-07T05:43:22;12;9;
78408;PMS5003;67697;50.750;-3.270;2024-01-07T05:45:47;9;9;
78408;PMS5003;67697;50.750;-3.270;2024-01-07T05:48:13;8;8;
78408;PMS5003;67697;50.750;-3.270;2024-01-07T05:50:39;9;8;
78408;PMS5003;67697;50.750;-3.270;2024-01-07T05:53:05;10;10;
78408;PMS5003;67697;50.750;-3.270;2024-01-07T05:55:29;8;8;
78408;PMS5003;67697;50.750;-3.270;2024-01-07T05:57:55;8;8;
78408;PMS5003;67697;50.750;-3.270;2024-01-07T06:00:20;12;12;
78408;PMS5003;67697;50.750;-3.270;2024-01-07T06:02:46;8;6;
78408;PMS5003;67697;50.750;-3.270;2024-01-07T06:05:11;8;6;
78408;PMS5003;67697;50.750;-3.270;2024-01-07T06:07:37;8;8;
78408;PMS5003;67697;50.750;-3.270;2024-01-07T06:10:03;9;8;
78408;PMS5003;67697;50.750;-3.270;2024-01-07T06:12:29;10;9;
78408;PMS5003;67697;50.750;-3.270;2024-01-07T06:14:55;10;8;
78408;PMS5003;67697;50.750;-3.270;2024-01-07T06:17:20;10;10;
78408;PMS5003;67697;50.750;-3.270;2024-01-07T06:19:45;9;9;
78408;PMS5003;67697;50.750;-3.270;2024-01-07T06:22:10;16;14;
78408;PMS5003;67697;50.750;-3.270;2024-01-07T06:24:36;32;27;
78408;PMS5003;67697;50.750;-3.270;2024-01-07T06:27:01;24;21;
78408;PMS5003;67697;50.750;-3.270;2024-01-07T06:29:26;32;23;
78408;PMS5003;67697;50.750;-3.270;2024-01-07T06:31:51;24;17;
78408;PMS5003;67697;50.750;-3.270;2024-01-07T06:34:17;17;16;
78408;PMS5003;67697;50.750;-3.270;2024-01-07T06:36:42;17;17;
78408;PMS5003;67697;50.750;-3.270;2024-01-07T06:39:08;12;12;
78408;PMS5003;67697;50.750;-3.270;2024-01-07T06:41:34;16;13;
78408;PMS5003;67697;50.750;-3.270;2024-01-07T06:43:59;13;13;
78408;PMS5003;67697;50.750;-3.270;2024-01-07T06:46:25;15;13;
78408;PMS5003;67697;50.750;-3.270;2024-01-07T06:48:50;12;9;
78408;PMS5003;67697;50.750;-3.270;2024-01-07T06:51:15;13;10;
78408;PMS5003;67697;50.750;-3.270;2024-01-07T06:53:40;14;12;
78408;PMS5003;67697;50.750;-3.270;2024-01-07T06:56:06;12;10;
78408;PMS5003;67697;50.750;-3.270;2024-01-07T06:58:32;14;12;
78408;PMS5003;67697;50.750;-3.270;2024-01-07T07:00:58;17;12;
78408;PMS5003;67697;50.750;-3.270;2024-01-07T07:03:23;9;9;
78408;PMS5003;67697;50.750;-3.270;2024-01-07T07:05:48;10;8;
78408;PMS5003;67697;50.750;-3.270;2024-01-07T07:08:14;15;13;
78408;PMS5003;67697;50.750;-3.270;2024-01-07T07:10:40;17;12;
78408;PMS5003;67697;50.750;-3.270;2024-01-07T07:13:05;15;12;
78408;PMS5003;67697;50.750;-3.270;2024-01-07T07:15:30;15;12;
78408;PMS5003;67697;50.750;-3.270;2024-01-07T07:17:56;13;9;
78408;PMS5003;67697;50.750;-3.270;2024-01-07T07:20:21;15;13;
78408;PMS5003;67697;50.750;-3.270;2024-01-07T07:22:47;13;10;
78408;PMS5003;67697;50.750;-3.270;2024-01-07T07:25:12;8;8;
78408;PMS5003;67697;50.750;-3.270;2024-01-07T07:27:38;12;10;
78408;PMS5003;67697;50.750;-3.270;2024-01-07T07:30:04;13;13;
78408;PMS5003;67697;50.750;-3.270;2024-01-07T07:32:29;10;9;
78408;PMS5003;67697;50.750;-3.270;2024-01-07T07:34:55;10;10;
78408;PMS5003;67697;50.750;-3.270;2024-01-07T07:37:20;9;9;
78408;PMS5003;67697;50.750;-3.270;2024-01-07T07:39:45;12;10;
78408;PMS5003;67697;50.750;-3.270;2024-01-07T07:42:11;13;10;
78408;PMS5003;67697;50.750;-3.270;2024-01-07T07:44:37;13;13;
78408;PMS5003;67697;50.750;-3.270;2024-01-07T07:47:02;16;16;
78408;PMS5003;67697;50.750;-3.270;2024-01-07T07:49:27;15;13;
78408;PMS5003;67697;50.750;-3.270;2024-01-07T07:51:54;15;15;
78408;PMS5003;67697;50.750;-3.270;2024-01-07T07:54:19;13;11;
78408;PMS5003;67697;50.750;-3.270;2024-01-07T07:56:45;13;12;
78408;PMS5003;67697;50.750;-3.270;2024-01-07T07:59:11;17;17;
78408;PMS5003;67697;50.750;-3.270;2024-01-07T08:01:36;21;16;
78408;PMS5003;67697;50.750;-3.270;2024-01-07T08:04:02;34;27;
78408;PMS5003;67697;50.750;-3.270;2024-01-07T08:06:27;35;29;
78408;PMS5003;67697;50.750;-3.270;2024-01-07T08:08:52;28;25;
78408;PMS5003;67697;50.750;-3.270;2024-01-07T08:11:18;52;50;
78408;PMS5003;67697;50.750;-3.270;2024-01-07T08:13:43;37;34;
78408;PMS5003;67697;50.750;-3.270;2024-01-07T08:16:09;24;24;
78408;PMS5003;67697;50.750;-3.270;2024-01-07T08:18:34;28;27;
78408;PMS5003;67697;50.750;-3.270;2024-01-07T08:20:59;20;17;
78408;PMS5003;67697;50.750;-3.270;2024-01-07T08:23:25;19;17;
78408;PMS5003;67697;50.750;-3.270;2024-01-07T08:25:50;22;22;
78408;PMS5003;67697;50.750;-3.270;2024-01-07T08:28:15;45;37;
78408;PMS5003;67697;50.750;-3.270;2024-01-07T08:30:41;48;40;
78408;PMS5003;67697;50.750;-3.270;2024-01-07T08:33:07;67;59;
78408;PMS5003;67697;50.750;-3.270;2024-01-07T08:35:32;46;40;
78408;PMS5003;67697;50.750;-3.270;2024-01-07T08:37:57;36;32;
78408;PMS5003;67697;50.750;-3.270;2024-01-07T08:40:22;31;25;
78408;PMS5003;67697;50.750;-3.270;2024-01-07T08:42:48;32;28;
78408;PMS5003;67697;50.750;-3.270;2024-01-07T08:45:13;27;24;
78408;PMS5003;67697;50.750;-3.270;2024-01-07T08:47:39;30;26;
78408;PMS5003;67697;50.750;-3.270;2024-01-07T08:50:05;34;27;
78408;PMS5003;67697;50.750;-3.270;2024-01-07T08:52:31;37;30;
78408;PMS5003;67697;50.750;-3.270;2024-01-07T08:54:56;34;30;
78408;PMS5003;67697;50.750;-3.270;2024-01-07T08:57:21;45;32;
78408;PMS5003;67697;50.750;-3.270;2024-01-07T08:59:47;35;28;
78408;PMS5003;67697;50.750;-3.270;2024-01-07T09:02:12;30;28;
78408;PMS5003;67697;50.750;-3.270;2024-01-07T09:04:38;38;33;
78408;PMS5003;67697;50.750;-3.270;2024-01-07T09:07:03;31;26;
78408;PMS5003;67697;50.750;-3.270;2024-01-07T09:09:29;30;24;
78408;PMS5003;67697;50.750;-3.270;2024-01-07T09:11:55;35;31;
78408;PMS5003;67697;50.750;-3.270;2024-01-07T09:14:20;28;24;
78408;PMS5003;67697;50.750;-3.270;2024-01-07T09:16:45;31;26;
78408;PMS5003;67697;50.750;-3.270;2024-01-07T09:19:11;41;26;
78408;PMS5003;67697;50.750;-3.270;2024-01-07T09:21:36;31;24;
78408;PMS5003;67697;50.750;-3.270;2024-01-07T09:24:03;31;27;
78408;PMS5003;67697;50.750;-3.270;2024-01-07T09:26:26;35;32;
78408;PMS5003;67697;50.750;-3.270;2024-01-07T09:28:52;27;23;
78408;PMS5003;67697;50.750;-3.270;2024-01-07T09:31:17;28;24;
78408;PMS5003;67697;50.750;-3.270;2024-01-07T09:33:43;27;24;
78408;PMS5003;67697;50.750;-3.270;2024-01-07T09:36:09;32;27;
78408;PMS5003;67697;50.750;-3.270;2024-01-07T09:38:34;32;26;
78408;PMS5003;67697;50.750;-3.270;2024-01-07T09:40:59;26;23;
78408;PMS5003;67697;50.750;-3.270;2024-01-07T09:43:25;34;25;
78408;PMS5003;67697;50.750;-3.270;2024-01-07T09:45:50;34;27;
78408;PMS5003;67697;50.750;-3.270;2024-01-07T09:48:15;39;34;
78408;PMS5003;67697;50.750;-3.270;2024-01-07T09:50:41;38;28;
78408;PMS5003;67697;50.750;-3.270;2024-01-07T09:53:06;30;27;
78408;PMS5003;67697;50.750;-3.270;2024-01-07T09:55:33;53;47;
78408;PMS5003;67697;50.750;-3.270;2024-01-07T09:57:57;55;50;
78408;PMS5003;67697;50.750;-3.270;2024-01-07T10:00:24;54;47;
78408;PMS5003;67697;50.750;-3.270;2024-01-07T10:02:48;40;36;
78408;PMS5003;67697;50.750;-3.270;2024-01-07T10:05:14;16;15;
78408;PMS5003;67697;50.750;-3.270;2024-01-07T10:07:39;12;10;
78408;PMS5003;67697;50.750;-3.270;2024-01-07T10:10:12;17;14;
78408;PMS5003;67697;50.750;-3.270;2024-01-07T10:12:30;16;9;
78408;PMS5003;67697;50.750;-3.270;2024-01-07T10:14:56;13;13;
78408;PMS5003;67697;50.750;-3.270;2024-01-07T10:17:21;16;12;
78408;PMS5003;67697;50.750;-3.270;2024-01-07T10:19:46;16;10;
78408;PMS5003;67697;50.750;-3.270;2024-01-07T10:22:12;16;12;
78408;PMS5003;67697;50.750;-3.270;2024-01-07T10:24:38;16;13;
78408;PMS5003;67697;50.750;-3.270;2024-01-07T10:27:03;14;10;
78408;PMS5003;67697;50.750;-3.270;2024-01-07T10:29:29;12;12;
78408;PMS5003;67697;50.750;-3.270;2024-01-07T10:31:55;10;9;
78408;PMS5003;67697;50.750;-3.270;2024-01-07T10:34:20;13;13;
78408;PMS5003;67697;50.750;-3.270;2024-01-07T10:36:45;10;9;
78408;PMS5003;67697;50.750;-3.270;2024-01-07T10:39:10;14;12;
78408;PMS5003;67697;50.750;-3.270;2024-01-07T10:41:36;10;9;
78408;PMS5003;67697;50.750;-3.270;2024-01-07T10:44:02;9;9;
78408;PMS5003;67697;50.750;-3.270;2024-01-07T10:46:27;12;10;
78408;PMS5003;67697;50.750;-3.270;2024-01-07T10:48:54;12;10;
78408;PMS5003;67697;50.750;-3.270;2024-01-07T10:51:19;6;6;
78408;PMS5003;67697;50.750;-3.270;2024-01-07T10:53:44;10;9;
78408;PMS5003;67697;50.750;-3.270;2024-01-07T10:56:11;10;9;
78408;PMS5003;67697;50.750;-3.270;2024-01-07T10:58:36;9;8;
78408;PMS5003;67697;50.750;-3.270;2024-01-07T11:01:01;10;8;
78408;PMS5003;67697;50.750;-3.270;2024-01-07T11:03:30;9;9;
78408;PMS5003;67697;50.750;-3.270;2024-01-07T11:05:54;9;8;
78408;PMS5003;67697;50.750;-3.270;2024-01-07T11:08:20;14;10;
78408;PMS5003;67697;50.750;-3.270;2024-01-07T11:10:46;8;6;
78408;PMS5003;67697;50.750;-3.270;2024-01-07T11:13:10;5;5;
78408;PMS5003;67697;50.750;-3.270;2024-01-07T11:18:01;7;6;
78408;PMS5003;67697;50.750;-3.270;2024-01-07T11:20:27;8;6;
78408;PMS5003;67697;50.750;-3.270;2024-01-07T11:22:52;6;5;
78408;PMS5003;67697;50.750;-3.270;2024-01-07T11:27:44;7;7;
78408;PMS5003;67697;50.750;-3.270;2024-01-07T11:30:18;5;5;
78408;PMS5003;67697;50.750;-3.270;2024-01-07T11:32:36;5;5;
78408;PMS5003;67697;50.750;-3.270;2024-01-07T11:35:01;8;8;
78408;PMS5003;67697;50.750;-3.270;2024-01-07T11:37:27;5;5;
78408;PMS5003;67697;50.750;-3.270;2024-01-07T11:39:55;7;5;
78408;PMS5003;67697;50.750;-3.270;2024-01-07T11:42:19;5;5;
78408;PMS5003;67697;50.750;-3.270;2024-01-07T11:44:45;10;6;
78408;PMS5003;67697;50.750;-3.270;2024-01-07T11:47:11;9;6;
78408;PMS5003;67697;50.750;-3.270;2024-01-07T11:49:36;5;5;
78408;PMS5003;67697;50.750;-3.270;2024-01-07T11:52:03;8;8;
78408;PMS5003;67697;50.750;-3.270;2024-01-07T11:54:28;5;2;
78408;PMS5003;67697;50.750;-3.270;2024-01-07T11:56:53;6;4;
78408;PMS5003;67697;50.750;-3.270;2024-01-07T11:59:19;4;4;
78408;PMS5003;67697;50.750;-3.270;2024-01-07T12:01:43;4;2;
78408;PMS5003;67697;50.750;-3.270;2024-01-07T12:04:09;4;4;
78408;PMS5003;67697;50.750;-3.270;2024-01-07T12:06:35;2;2;
78408;PMS5003;67697;50.750;-3.270;2024-01-07T12:09:01;4;2;
78408;PMS5003;67697;50.750;-3.270;2024-01-07T12:11:27;4;4;
78408;PMS5003;67697;50.750;-3.270;2024-01-07T12:13:52;5;2;
78408;PMS5003;67697;50.750;-3.270;2024-01-07T12:16:18;2;2;
78408;PMS5003;67697;50.750;-3.270;2024-01-07T12:18:43;1;1;
78408;PMS5003;67697;50.750;-3.270;2024-01-07T12:21:08;2;1;
78408;PMS5003;67697;50.750;-3.270;2024-01-07T12:23:34;2;2;
78408;PMS5003;67697;50.750;-3.270;2024-01-07T12:28:24;4;2;
78408;PMS5003;67697;50.750;-3.270;2024-01-07T12:30:50;2;1;
78408;PMS5003;67697;50.750;-3.270;2024-01-07T12:33:16;1;1;
78408;PMS5003;67697;50.750;-3.270;2024-01-07T12:35:42;1;1;
78408;PMS5003;67697;50.750;-3.270;2024-01-07T12:38:07;2;2;
78408;PMS5003;67697;50.750;-3.270;2024-01-07T12:40:33;1;1;
78408;PMS5003;67697;50.750;-3.270;2024-01-07T12:42:59;2;2;
78408;PMS5003;67697;50.750;-3.270;2024-01-07T12:45:25;1;1;
78408;PMS5003;67697;50.750;-3.270;2024-01-07T12:47:51;1;1;
78408;PMS5003;67697;50.750;-3.270;2024-01-07T12:50:17;1;1;
78408;PMS5003;67697;50.750;-3.270;2024-01-07T12:52:42;0;0;
78408;PMS5003;67697;50.750;-3.270;2024-01-07T12:55:08;5;3;
78408;PMS5003;67697;50.750;-3.270;2024-01-07T12:57:34;3;3;
78408;PMS5003;67697;50.750;-3.270;2024-01-07T13:00:00;1;1;
78408;PMS5003;67697;50.750;-3.270;2024-01-07T13:02:25;3;2;
78408;PMS5003;67697;50.750;-3.270;2024-01-07T13:04:51;2;2;
78408;PMS5003;67697;50.750;-3.270;2024-01-07T13:07:17;2;2;
78408;PMS5003;67697;50.750;-3.270;2024-01-07T13:09:43;0;0;
78408;PMS5003;67697;50.750;-3.270;2024-01-07T13:12:09;1;1;
78408;PMS5003;67697;50.750;-3.270;2024-01-07T13:14:35;2;2;
78408;PMS5003;67697;50.750;-3.270;2024-01-07T13:17:00;5;5;
78408;PMS5003;67697;50.750;-3.270;2024-01-07T13:19:26;1;1;
78408;PMS5003;67697;50.750;-3.270;2024-01-07T13:21:52;2;2;
78408;PMS5003;67697;50.750;-3.270;2024-01-07T13:24:18;1;1;
78408;PMS5003;67697;50.750;-3.270;2024-01-07T13:26:43;6;3;
78408;PMS5003;67697;50.750;-3.270;2024-01-07T13:29:09;1;1;
78408;PMS5003;67697;50.750;-3.270;2024-01-07T13:31:35;2;2;
78408;PMS5003;67697;50.750;-3.270;2024-01-07T13:34:01;5;3;
78408;PMS5003;67697;50.750;-3.270;2024-01-07T13:36:26;1;1;
78408;PMS5003;67697;50.750;-3.270;2024-01-07T13:38:52;1;1;
78408;PMS5003;67697;50.750;-3.270;2024-01-07T13:41:18;1;1;
78408;PMS5003;67697;50.750;-3.270;2024-01-07T13:43:44;5;2;
78408;PMS5003;67697;50.750;-3.270;2024-01-07T13:46:09;5;2;
78408;PMS5003;67697;50.750;-3.270;2024-01-07T13:48:35;1;1;
78408;PMS5003;67697;50.750;-3.270;2024-01-07T13:51:01;1;1;
78408;PMS5003;67697;50.750;-3.270;2024-01-07T13:53:27;5;3;
78408;PMS5003;67697;50.750;-3.270;2024-01-07T13:55:52;3;3;
78408;PMS5003;67697;50.750;-3.270;2024-01-07T13:58:20;5;2;
78408;PMS5003;67697;50.750;-3.270;2024-01-07T14:00:44;1;1;
78408;PMS5003;67697;50.750;-3.270;2024-01-07T14:03:10;1;1;
78408;PMS5003;67697;50.750;-3.270;2024-01-07T14:05:36;4;2;
78408;PMS5003;67697;50.750;-3.270;2024-01-07T14:08:07;5;4;
78408;PMS5003;67697;50.750;-3.270;2024-01-07T14:10:27;9;6;
78408;PMS5003;67697;50.750;-3.270;2024-01-07T14:12:53;5;5;
78408;PMS5003;67697;50.750;-3.270;2024-01-07T14:15:19;1;1;
78408;PMS5003;67697;50.750;-3.270;2024-01-07T14:17:45;2;2;
78408;PMS5003;67697;50.750;-3.270;2024-01-07T14:20:11;2;2;
78408;PMS5003;67697;50.750;-3.270;2024-01-07T14:22:36;2;2;
78408;PMS5003;67697;50.750;-3.270;2024-01-07T14:25:02;3;2;
78408;PMS5003;67697;50.750;-3.270;2024-01-07T14:27:28;4;4;
78408;PMS5003;67697;50.750;-3.270;2024-01-07T14:29:54;1;1;
78408;PMS5003;67697;50.750;-3.270;2024-01-07T14:32:19;1;1;
78408;PMS5003;67697;50.750;-3.270;2024-01-07T14:34:45;5;2;
78408;PMS5003;67697;50.750;-3.270;2024-01-07T14:37:11;1;1;
78408;PMS5003;67697;50.750;-3.270;2024-01-07T14:39:37;2;2;
78408;PMS5003;67697;50.750;-3.270;2024-01-07T14:42:03;2;2;
78408;PMS5003;67697;50.750;-3.270;2024-01-07T14:44:28;3;3;
78408;PMS5003;67697;50.750;-3.270;2024-01-07T14:46:54;1;1;
78408;PMS5003;67697;50.750;-3.270;2024-01-07T14:49:20;2;2;
78408;PMS5003;67697;50.750;-3.270;2024-01-07T14:51:46;4;2;
78408;PMS5003;67697;50.750;-3.270;2024-01-07T14:54:12;1;1;
78408;PMS5003;67697;50.750;-3.270;2024-01-07T14:56:38;4;2;
78408;PMS5003;67697;50.750;-3.270;2024-01-07T14:59:05;2;2;
78408;PMS5003;67697;50.750;-3.270;2024-01-07T15:01:29;2;2;
78408;PMS5003;67697;50.750;-3.270;2024-01-07T15:03:55;5;2;
78408;PMS5003;67697;50.750;-3.270;2024-01-07T15:06:21;2;2;
78408;PMS5003;67697;50.750;-3.270;2024-01-07T15:08:47;4;4;
78408;PMS5003;67697;50.750;-3.270;2024-01-07T15:11:13;6;6;
78408;PMS5003;67697;50.750;-3.270;2024-01-07T15:13:38;5;4;
78408;PMS5003;67697;50.750;-3.270;2024-01-07T15:16:04;8;5;
78408;PMS5003;67697;50.750;-3.270;2024-01-07T15:18:30;2;2;
78408;PMS5003;67697;50.750;-3.270;2024-01-07T15:20:56;5;5;
78408;PMS5003;67697;50.750;-3.270;2024-01-07T15:23:21;9;6;
78408;PMS5003;67697;50.750;-3.270;2024-01-07T15:25:46;5;5;
78408;PMS5003;67697;50.750;-3.270;2024-01-07T15:28:11;1;1;
78408;PMS5003;67697;50.750;-3.270;2024-01-07T15:30:37;2;2;
78408;PMS5003;67697;50.750;-3.270;2024-01-07T15:33:03;2;2;
78408;PMS5003;67697;50.750;-3.270;2024-01-07T15:35:29;4;4;
78408;PMS5003;67697;50.750;-3.270;2024-01-07T15:37:55;5;5;
78408;PMS5003;67697;50.750;-3.270;2024-01-07T15:40:21;2;2;
78408;PMS5003;67697;50.750;-3.270;2024-01-07T15:42:47;6;6;
78408;PMS5003;67697;50.750;-3.270;2024-01-07T15:45:12;10;8;
78408;PMS5003;67697;50.750;-3.270;2024-01-07T15:47:37;4;4;
78408;PMS5003;67697;50.750;-3.270;2024-01-07T15:50:03;9;9;
78408;PMS5003;67697;50.750;-3.270;2024-01-07T15:52:28;9;8;
78408;PMS5003;67697;50.750;-3.270;2024-01-07T15:54:54;4;4;
78408;PMS5003;67697;50.750;-3.270;2024-01-07T15:57:19;5;2;
78408;PMS5003;67697;50.750;-3.270;2024-01-07T15:59:45;9;8;
78408;PMS5003;67697;50.750;-3.270;2024-01-07T16:02:11;6;6;
78408;PMS5003;67697;50.750;-3.270;2024-01-07T16:04:37;8;6;
78408;PMS5003;67697;50.750;-3.270;2024-01-07T16:07:03;8;8;
78408;PMS5003;67697;50.750;-3.270;2024-01-07T16:09:28;6;6;
78408;PMS5003;67697;50.750;-3.270;2024-01-07T16:11:54;9;8;